Airfield :
LOGIN :

Register | Disclaimer

   EN    FR    IT 

 










Legend :    VFR   Marginal VFR   IFR   Intensive IFR   Very Intensive IFR
Visi :
Ceiling :
>= 8 km
>= 3000ft
5 to 8 km
1000 to 3000 ft
1500m to 5 km
500 to 1000 ft
800 to 1500m
200 to 500 ft
< 800m
< 200 ft
Symbols :   Thunderstorms  Fog  Heavy snow  Heavy precipitations  Wind > 20 kt
SIGMETs :     Misc.  Thunderstorms  Icing  Turbulence  Mountain Waves  Volcanic Ashes







- Airport Elevation : -11 ft
- IATA code : AMS


EHAM - Amsterdam Schiphol

CURRENT METAR :
  • 240225Z VRB02KT CAVOK 02/02 Q1031 NOSIG

EXPIRED METARs :
  • 240155Z VRB01KT CAVOK 02/02 Q1031 NOSIG
  • 240125Z VRB01KT CAVOK 02/02 Q1031 NOSIG
  • 240055Z 36003KT CAVOK 02/01 Q1031 NOSIG
  • 240025Z 36003KT 320V020 CAVOK 03/02 Q1031 NOSIG
  • 232355Z 01003KT CAVOK 03/02 Q1032 NOSIG

TAF TAF EHAM
Valid from the 24 at 00:00 until the 25 at 06:00 UTC


232248Z 2400/2506 36005KT CAVOK
PROB30 2401/2407 5000 BR MIFG
BECMG 2410/2413 29010KT
BECMG 2417/2420 23007KT
BECMG 2422/2501 31017G27KT
TEMPO 2500/2503 5000 SHRA RA BKN018 SCT020TCU
No reported NOTAMs for that airfield.



MET'MAP, your aeronautical weather chart ! - Copyright ORBIFLY December 2007 - Disclaimer

ORBIFLY MET'MAP TEAM :

Programming & Development : Alexandra Zaïnal
Concept & Development : Baudouin d'Aumeries
Co-Development & Prog : Marc-Olivier Méhu
Technical & hardware support : Manuel Goepfert

Contact : metmap@orbifly.com




SOURCES & CREDITS :

   NOAA